sensor_id;sensor_type;location;lat;lon;timestamp;temperature;humidity
27544;DHT22;17996;51.056;3.656;2024-02-21T00:01:03;11.00;99.90
27544;DHT22;17996;51.056;3.656;2024-02-21T00:03:30;10.90;99.90
27544;DHT22;17996;51.056;3.656;2024-02-21T00:05:56;10.90;99.90
27544;DHT22;17996;51.056;3.656;2024-02-21T00:08:22;10.80;99.90
27544;DHT22;17996;51.056;3.656;2024-02-21T00:10:49;10.80;99.90
27544;DHT22;17996;51.056;3.656;2024-02-21T00:13:14;10.80;99.90
27544;DHT22;17996;51.056;3.656;2024-02-21T00:15:41;10.90;99.90
27544;DHT22;17996;51.056;3.656;2024-02-21T00:18:07;10.90;99.90
27544;DHT22;17996;51.056;3.656;2024-02-21T00:20:33;10.90;99.90
27544;DHT22;17996;51.056;3.656;2024-02-21T00:23:00;10.90;99.90
27544;DHT22;17996;51.056;3.656;2024-02-21T00:25:25;10.90;99.90
27544;DHT22;17996;51.056;3.656;2024-02-21T00:27:51;10.90;99.90
27544;DHT22;17996;51.056;3.656;2024-02-21T00:30:17;10.80;99.90
27544;DHT22;17996;51.056;3.656;2024-02-21T00:32:43;10.80;99.90
27544;DHT22;17996;51.056;3.656;2024-02-21T00:35:08;10.80;99.90
27544;DHT22;17996;51.056;3.656;2024-02-21T00:37:34;10.80;99.90
27544;DHT22;17996;51.056;3.656;2024-02-21T00:40:00;10.80;99.90
27544;DHT22;17996;51.056;3.656;2024-02-21T00:42:26;10.80;99.90
27544;DHT22;17996;51.056;3.656;2024-02-21T00:44:52;10.80;99.90
27544;DHT22;17996;51.056;3.656;2024-02-21T00:47:17;10.70;99.90
27544;DHT22;17996;51.056;3.656;2024-02-21T00:49:43;10.70;99.90
27544;DHT22;17996;51.056;3.656;2024-02-21T00:52:09;10.70;99.90
27544;DHT22;17996;51.056;3.656;2024-02-21T00:54:35;10.70;99.90
27544;DHT22;17996;51.056;3.656;2024-02-21T00:57:00;10.70;99.90
27544;DHT22;17996;51.056;3.656;2024-02-21T00:59:26;10.60;99.90
27544;DHT22;17996;51.056;3.656;2024-02-21T01:01:52;10.60;99.90
27544;DHT22;17996;51.056;3.656;2024-02-21T01:04:18;10.60;99.90
27544;DHT22;17996;51.056;3.656;2024-02-21T01:06:44;10.50;99.90
27544;DHT22;17996;51.056;3.656;2024-02-21T01:09:10;10.60;99.90
27544;DHT22;17996;51.056;3.656;2024-02-21T01:11:37;10.50;99.90
27544;DHT22;17996;51.056;3.656;2024-02-21T01:14:04;10.60;99.90
27544;DHT22;17996;51.056;3.656;2024-02-21T01:16:32;10.60;99.90
27544;DHT22;17996;51.056;3.656;2024-02-21T01:18:58;10.50;99.90
27544;DHT22;17996;51.056;3.656;2024-02-21T01:21:23;10.60;99.90
27544;DHT22;17996;51.056;3.656;2024-02-21T01:23:49;10.60;99.90
27544;DHT22;17996;51.056;3.656;2024-02-21T01:26:15;10.60;99.90
27544;DHT22;17996;51.056;3.656;2024-02-21T01:28:41;10.60;99.90
27544;DHT22;17996;51.056;3.656;2024-02-21T01:31:07;10.60;99.90
27544;DHT22;17996;51.056;3.656;2024-02-21T01:33:33;10.60;99.90
27544;DHT22;17996;51.056;3.656;2024-02-21T01:36:03;10.60;99.90
27544;DHT22;17996;51.056;3.656;2024-02-21T01:38:30;10.60;99.90
27544;DHT22;17996;51.056;3.656;2024-02-21T01:40:57;10.60;99.90
27544;DHT22;17996;51.056;3.656;2024-02-21T01:43:23;10.60;99.90
27544;DHT22;17996;51.056;3.656;2024-02-21T01:45:50;10.50;99.90
27544;DHT22;17996;51.056;3.656;2024-02-21T01:48:18;10.50;99.90
27544;DHT22;17996;51.056;3.656;2024-02-21T01:50:48;10.50;99.90
27544;DHT22;17996;51.056;3.656;2024-02-21T01:53:37;10.60;99.90
27544;DHT22;17996;51.056;3.656;2024-02-21T01:56:04;10.60;99.90
27544;DHT22;17996;51.056;3.656;2024-02-21T01:58:32;10.60;99.90
27544;DHT22;17996;51.056;3.656;2024-02-21T02:01:01;10.60;99.90
27544;DHT22;17996;51.056;3.656;2024-02-21T02:03:30;10.60;99.90
27544;DHT22;17996;51.056;3.656;2024-02-21T02:05:56;10.70;99.90
27544;DHT22;17996;51.056;3.656;2024-02-21T02:08:24;10.70;99.90
27544;DHT22;17996;51.056;3.656;2024-02-21T02:10:52;10.70;99.90
27544;DHT22;17996;51.056;3.656;2024-02-21T02:13:20;10.70;99.90
27544;DHT22;17996;51.056;3.656;2024-02-21T02:15:47;10.80;99.90
27544;DHT22;17996;51.056;3.656;2024-02-21T02:18:14;10.80;99.90
27544;DHT22;17996;51.056;3.656;2024-02-21T02:20:40;10.80;99.90
27544;DHT22;17996;51.056;3.656;2024-02-21T02:23:25;10.70;99.90
27544;DHT22;17996;51.056;3.656;2024-02-21T02:25:51;10.70;99.90
27544;DHT22;17996;51.056;3.656;2024-02-21T02:28:21;10.70;99.90
27544;DHT22;17996;51.056;3.656;2024-02-21T02:30:49;10.70;99.90
27544;DHT22;17996;51.056;3.656;2024-02-21T02:33:15;10.70;99.90
27544;DHT22;17996;51.056;3.656;2024-02-21T02:35:43;10.70;99.90
27544;DHT22;17996;51.056;3.656;2024-02-21T02:38:10;10.70;99.90
27544;DHT22;17996;51.056;3.656;2024-02-21T02:40:38;10.70;99.90
27544;DHT22;17996;51.056;3.656;2024-02-21T02:43:05;10.70;99.90
27544;DHT22;17996;51.056;3.656;2024-02-21T02:45:31;10.70;99.90
27544;DHT22;17996;51.056;3.656;2024-02-21T02:47:57;10.70;99.90
27544;DHT22;17996;51.056;3.656;2024-02-21T02:50:25;10.80;99.90
27544;DHT22;17996;51.056;3.656;2024-02-21T02:52:52;10.70;99.90
27544;DHT22;17996;51.056;3.656;2024-02-21T02:55:19;10.70;99.90
27544;DHT22;17996;51.056;3.656;2024-02-21T02:57:45;10.70;99.90
27544;DHT22;17996;51.056;3.656;2024-02-21T03:00:12;10.70;99.90
27544;DHT22;17996;51.056;3.656;2024-02-21T03:02:42;10.70;99.90
27544;DHT22;17996;51.056;3.656;2024-02-21T03:05:15;10.70;99.90
27544;DHT22;17996;51.056;3.656;2024-02-21T03:07:42;10.70;99.90
27544;DHT22;17996;51.056;3.656;2024-02-21T03:10:08;10.70;99.90
27544;DHT22;17996;51.056;3.656;2024-02-21T03:12:35;10.70;99.90
27544;DHT22;17996;51.056;3.656;2024-02-21T03:15:00;10.70;99.90
27544;DHT22;17996;51.056;3.656;2024-02-21T03:17:26;10.70;99.90
27544;DHT22;17996;51.056;3.656;2024-02-21T03:19:53;10.60;99.90
27544;DHT22;17996;51.056;3.656;2024-02-21T03:22:21;10.70;99.90
27544;DHT22;17996;51.056;3.656;2024-02-21T03:24:47;10.70;99.90
27544;DHT22;17996;51.056;3.656;2024-02-21T03:27:13;10.70;99.90
27544;DHT22;17996;51.056;3.656;2024-02-21T03:29:39;10.60;99.90
27544;DHT22;17996;51.056;3.656;2024-02-21T03:32:05;10.70;99.90
27544;DHT22;17996;51.056;3.656;2024-02-21T03:34:30;10.60;99.90
27544;DHT22;17996;51.056;3.656;2024-02-21T03:36:56;10.60;99.90
27544;DHT22;17996;51.056;3.656;2024-02-21T03:39:22;10.60;99.90
27544;DHT22;17996;51.056;3.656;2024-02-21T03:41:50;10.60;99.90
27544;DHT22;17996;51.056;3.656;2024-02-21T03:44:17;10.60;99.90
27544;DHT22;17996;51.056;3.656;2024-02-21T03:46:44;10.60;99.90
27544;DHT22;17996;51.056;3.656;2024-02-21T03:49:11;10.60;99.90
27544;DHT22;17996;51.056;3.656;2024-02-21T03:51:38;10.60;99.90
27544;DHT22;17996;51.056;3.656;2024-02-21T03:54:04;10.60;99.90
27544;DHT22;17996;51.056;3.656;2024-02-21T03:56:29;10.60;99.90
27544;DHT22;17996;51.056;3.656;2024-02-21T03:58:55;10.60;99.90
27544;DHT22;17996;51.056;3.656;2024-02-21T04:01:21;10.60;99.90
27544;DHT22;17996;51.056;3.656;2024-02-21T04:03:48;10.60;99.90
27544;DHT22;17996;51.056;3.656;2024-02-21T04:06:15;10.60;99.90
27544;DHT22;17996;51.056;3.656;2024-02-21T04:08:41;10.60;99.90
27544;DHT22;17996;51.056;3.656;2024-02-21T04:11:08;10.60;99.90
27544;DHT22;17996;51.056;3.656;2024-02-21T04:13:34;10.50;99.90
27544;DHT22;17996;51.056;3.656;2024-02-21T04:16:00;10.60;99.90
27544;DHT22;17996;51.056;3.656;2024-02-21T04:18:28;10.50;99.90
27544;DHT22;17996;51.056;3.656;2024-02-21T04:20:53;10.50;99.90
27544;DHT22;17996;51.056;3.656;2024-02-21T04:23:20;10.50;99.90
27544;DHT22;17996;51.056;3.656;2024-02-21T04:25:49;10.50;99.90
27544;DHT22;17996;51.056;3.656;2024-02-21T04:28:15;10.50;99.90
27544;DHT22;17996;51.056;3.656;2024-02-21T04:30:42;10.50;99.90
27544;DHT22;17996;51.056;3.656;2024-02-21T04:33:08;10.50;99.90
27544;DHT22;17996;51.056;3.656;2024-02-21T04:35:36;10.40;99.90
27544;DHT22;17996;51.056;3.656;2024-02-21T04:38:03;10.40;99.90
27544;DHT22;17996;51.056;3.656;2024-02-21T04:40:29;10.40;99.90
27544;DHT22;17996;51.056;3.656;2024-02-21T04:42:56;10.40;99.90
27544;DHT22;17996;51.056;3.656;2024-02-21T04:45:22;10.40;99.90
27544;DHT22;17996;51.056;3.656;2024-02-21T04:47:49;10.40;99.90
27544;DHT22;17996;51.056;3.656;2024-02-21T04:50:15;10.40;99.90
27544;DHT22;17996;51.056;3.656;2024-02-21T04:52:41;10.40;99.90
27544;DHT22;17996;51.056;3.656;2024-02-21T04:55:07;10.40;99.90
27544;DHT22;17996;51.056;3.656;2024-02-21T04:57:33;10.40;99.90
27544;DHT22;17996;51.056;3.656;2024-02-21T04:59:59;10.40;99.90
27544;DHT22;17996;51.056;3.656;2024-02-21T05:02:25;10.40;99.90
27544;DHT22;17996;51.056;3.656;2024-02-21T05:04:52;10.40;99.90
27544;DHT22;17996;51.056;3.656;2024-02-21T05:07:18;10.40;99.90
27544;DHT22;17996;51.056;3.656;2024-02-21T05:09:45;10.40;99.90
27544;DHT22;17996;51.056;3.656;2024-02-21T05:12:12;10.40;99.90
27544;DHT22;17996;51.056;3.656;2024-02-21T05:14:38;10.40;99.90
27544;DHT22;17996;51.056;3.656;2024-02-21T05:17:04;10.40;99.90
27544;DHT22;17996;51.056;3.656;2024-02-21T05:19:30;10.40;99.90
27544;DHT22;17996;51.056;3.656;2024-02-21T05:21:58;10.50;99.90
27544;DHT22;17996;51.056;3.656;2024-02-21T05:24:24;10.50;99.90
27544;DHT22;17996;51.056;3.656;2024-02-21T05:26:49;10.50;99.90
27544;DHT22;17996;51.056;3.656;2024-02-21T05:29:16;10.50;99.90
27544;DHT22;17996;51.056;3.656;2024-02-21T05:34:21;10.50;99.90
27544;DHT22;17996;51.056;3.656;2024-02-21T05:36:49;10.50;99.90
27544;DHT22;17996;51.056;3.656;2024-02-21T05:39:18;10.50;99.90
27544;DHT22;17996;51.056;3.656;2024-02-21T05:41:44;10.50;99.90
27544;DHT22;17996;51.056;3.656;2024-02-21T05:44:11;10.50;99.90
27544;DHT22;17996;51.056;3.656;2024-02-21T05:46:37;10.50;99.90
27544;DHT22;17996;51.056;3.656;2024-02-21T05:49:03;10.50;99.90
27544;DHT22;17996;51.056;3.656;2024-02-21T05:51:34;10.50;99.90
27544;DHT22;17996;51.056;3.656;2024-02-21T05:54:01;10.50;99.90
27544;DHT22;17996;51.056;3.656;2024-02-21T05:56:27;10.50;99.90
27544;DHT22;17996;51.056;3.656;2024-02-21T05:58:55;10.50;99.90
27544;DHT22;17996;51.056;3.656;2024-02-21T06:01:22;10.50;99.90
27544;DHT22;17996;51.056;3.656;2024-02-21T06:03:48;10.50;99.90
27544;DHT22;17996;51.056;3.656;2024-02-21T06:06:14;10.50;99.90
27544;DHT22;17996;51.056;3.656;2024-02-21T06:08:41;10.50;99.90
27544;DHT22;17996;51.056;3.656;2024-02-21T06:11:09;10.40;99.90
27544;DHT22;17996;51.056;3.656;2024-02-21T06:13:38;10.50;99.90
27544;DHT22;17996;51.056;3.656;2024-02-21T06:16:05;10.50;99.90
27544;DHT22;17996;51.056;3.656;2024-02-21T06:18:33;10.50;99.90
27544;DHT22;17996;51.056;3.656;2024-02-21T06:20:59;10.50;99.90
27544;DHT22;17996;51.056;3.656;2024-02-21T06:23:28;10.50;99.90
27544;DHT22;17996;51.056;3.656;2024-02-21T06:25:55;10.50;99.90
27544;DHT22;17996;51.056;3.656;2024-02-21T06:28:21;10.50;99.90
27544;DHT22;17996;51.056;3.656;2024-02-21T06:30:50;10.50;99.90
27544;DHT22;17996;51.056;3.656;2024-02-21T06:33:16;10.50;99.90
27544;DHT22;17996;51.056;3.656;2024-02-21T06:35:43;10.50;99.90
27544;DHT22;17996;51.056;3.656;2024-02-21T06:38:11;10.50;99.90
27544;DHT22;17996;51.056;3.656;2024-02-21T06:40:37;10.50;99.90
27544;DHT22;17996;51.056;3.656;2024-02-21T06:43:06;10.50;99.90
27544;DHT22;17996;51.056;3.656;2024-02-21T06:45:33;10.50;99.90
27544;DHT22;17996;51.056;3.656;2024-02-21T06:47:59;10.50;99.90
27544;DHT22;17996;51.056;3.656;2024-02-21T06:50:26;10.50;99.90
27544;DHT22;17996;51.056;3.656;2024-02-21T06:52:52;10.50;99.90
27544;DHT22;17996;51.056;3.656;2024-02-21T06:55:19;10.60;99.90
27544;DHT22;17996;51.056;3.656;2024-02-21T06:57:45;10.60;99.90
27544;DHT22;17996;51.056;3.656;2024-02-21T07:00:13;10.60;99.90
27544;DHT22;17996;51.056;3.656;2024-02-21T07:02:39;10.60;99.90
27544;DHT22;17996;51.056;3.656;2024-02-21T07:05:05;10.60;99.90
27544;DHT22;17996;51.056;3.656;2024-02-21T07:07:31;10.60;99.90
27544;DHT22;17996;51.056;3.656;2024-02-21T07:09:58;10.60;99.90
27544;DHT22;17996;51.056;3.656;2024-02-21T07:12:26;10.50;99.90
27544;DHT22;17996;51.056;3.656;2024-02-21T07:14:55;10.50;99.90
27544;DHT22;17996;51.056;3.656;2024-02-21T07:17:21;10.50;99.90
27544;DHT22;17996;51.056;3.656;2024-02-21T07:19:48;10.50;99.90
27544;DHT22;17996;51.056;3.656;2024-02-21T07:22:14;10.50;99.90
27544;DHT22;17996;51.056;3.656;2024-02-21T07:24:39;10.50;99.90
27544;DHT22;17996;51.056;3.656;2024-02-21T07:27:07;10.50;99.90
27544;DHT22;17996;51.056;3.656;2024-02-21T07:29:33;10.50;99.90
27544;DHT22;17996;51.056;3.656;2024-02-21T07:31:59;10.50;99.90
27544;DHT22;17996;51.056;3.656;2024-02-21T07:34:24;10.50;99.90
27544;DHT22;17996;51.056;3.656;2024-02-21T07:36:52;10.50;99.90
27544;DHT22;17996;51.056;3.656;2024-02-21T07:39:18;10.60;99.90
27544;DHT22;17996;51.056;3.656;2024-02-21T07:41:47;10.50;99.90
27544;DHT22;17996;51.056;3.656;2024-02-21T07:44:15;10.60;99.90
27544;DHT22;17996;51.056;3.656;2024-02-21T07:46:41;10.60;99.90
27544;DHT22;17996;51.056;3.656;2024-02-21T07:49:07;10.60;99.90
27544;DHT22;17996;51.056;3.656;2024-02-21T07:51:34;10.60;99.90
27544;DHT22;17996;51.056;3.656;2024-02-21T07:54:01;10.60;99.90
27544;DHT22;17996;51.056;3.656;2024-02-21T07:56:29;10.60;99.90
27544;DHT22;17996;51.056;3.656;2024-02-21T07:58:55;10.60;99.90
27544;DHT22;17996;51.056;3.656;2024-02-21T08:01:21;10.60;99.90
27544;DHT22;17996;51.056;3.656;2024-02-21T08:03:47;10.60;99.90
27544;DHT22;17996;51.056;3.656;2024-02-21T08:06:13;10.60;99.90
27544;DHT22;17996;51.056;3.656;2024-02-21T08:08:40;10.60;99.90
27544;DHT22;17996;51.056;3.656;2024-02-21T08:11:06;10.70;99.90
27544;DHT22;17996;51.056;3.656;2024-02-21T08:13:31;10.70;99.90
27544;DHT22;17996;51.056;3.656;2024-02-21T08:15:57;10.70;99.90
27544;DHT22;17996;51.056;3.656;2024-02-21T08:18:23;10.70;99.90
27544;DHT22;17996;51.056;3.656;2024-02-21T08:20:51;10.70;99.90
27544;DHT22;17996;51.056;3.656;2024-02-21T08:23:17;10.70;99.90
27544;DHT22;17996;51.056;3.656;2024-02-21T08:25:43;10.70;99.90
27544;DHT22;17996;51.056;3.656;2024-02-21T08:28:10;10.80;99.90
27544;DHT22;17996;51.056;3.656;2024-02-21T08:30:36;10.80;99.90
27544;DHT22;17996;51.056;3.656;2024-02-21T08:33:02;10.80;99.90
27544;DHT22;17996;51.056;3.656;2024-02-21T08:35:30;10.80;99.90
27544;DHT22;17996;51.056;3.656;2024-02-21T08:37:56;10.90;99.90
27544;DHT22;17996;51.056;3.656;2024-02-21T08:40:22;10.90;99.90
27544;DHT22;17996;51.056;3.656;2024-02-21T08:42:48;10.90;99.90
27544;DHT22;17996;51.056;3.656;2024-02-21T08:45:15;10.90;99.90
27544;DHT22;17996;51.056;3.656;2024-02-21T08:47:41;10.90;99.90
27544;DHT22;17996;51.056;3.656;2024-02-21T08:50:08;10.90;99.90
27544;DHT22;17996;51.056;3.656;2024-02-21T08:52:37;10.90;99.90
27544;DHT22;17996;51.056;3.656;2024-02-21T08:55:03;10.90;99.90
27544;DHT22;17996;51.056;3.656;2024-02-21T08:57:31;10.90;99.90
27544;DHT22;17996;51.056;3.656;2024-02-21T09:00:04;11.00;99.90
27544;DHT22;17996;51.056;3.656;2024-02-21T09:02:39;11.00;99.90
27544;DHT22;17996;51.056;3.656;2024-02-21T09:05:06;11.00;99.90
27544;DHT22;17996;51.056;3.656;2024-02-21T09:07:32;11.00;99.90
27544;DHT22;17996;51.056;3.656;2024-02-21T09:09:57;11.00;99.90
27544;DHT22;17996;51.056;3.656;2024-02-21T09:12:23;11.00;99.90
27544;DHT22;17996;51.056;3.656;2024-02-21T09:14:49;11.00;99.90
27544;DHT22;17996;51.056;3.656;2024-02-21T09:17:16;11.10;99.90
27544;DHT22;17996;51.056;3.656;2024-02-21T09:19:50;11.20;99.90
27544;DHT22;17996;51.056;3.656;2024-02-21T09:22:17;11.20;99.90
27544;DHT22;17996;51.056;3.656;2024-02-21T09:24:43;11.30;99.90
27544;DHT22;17996;51.056;3.656;2024-02-21T09:27:09;11.30;99.90
27544;DHT22;17996;51.056;3.656;2024-02-21T09:29:36;11.40;99.90
27544;DHT22;17996;51.056;3.656;2024-02-21T09:32:02;11.40;99.90
27544;DHT22;17996;51.056;3.656;2024-02-21T09:34:28;11.30;99.90
27544;DHT22;17996;51.056;3.656;2024-02-21T09:36:54;11.30;99.90
27544;DHT22;17996;51.056;3.656;2024-02-21T09:39:20;11.40;99.90
27544;DHT22;17996;51.056;3.656;2024-02-21T09:42:13;11.40;99.90
27544;DHT22;17996;51.056;3.656;2024-02-21T09:44:39;11.40;99.90
27544;DHT22;17996;51.056;3.656;2024-02-21T09:47:22;11.40;99.90
27544;DHT22;17996;51.056;3.656;2024-02-21T09:49:48;11.50;99.90
27544;DHT22;17996;51.056;3.656;2024-02-21T09:52:15;11.50;99.90
27544;DHT22;17996;51.056;3.656;2024-02-21T09:54:44;11.50;99.90
27544;DHT22;17996;51.056;3.656;2024-02-21T09:57:11;11.60;99.90
27544;DHT22;17996;51.056;3.656;2024-02-21T09:59:37;11.60;99.90
27544;DHT22;17996;51.056;3.656;2024-02-21T10:02:04;11.60;99.90
27544;DHT22;17996;51.056;3.656;2024-02-21T10:04:30;11.60;99.90
27544;DHT22;17996;51.056;3.656;2024-02-21T10:06:57;11.60;99.90
27544;DHT22;17996;51.056;3.656;2024-02-21T10:09:25;11.70;99.90
27544;DHT22;17996;51.056;3.656;2024-02-21T10:11:55;11.70;99.90
27544;DHT22;17996;51.056;3.656;2024-02-21T10:14:22;11.70;99.90
27544;DHT22;17996;51.056;3.656;2024-02-21T10:16:58;11.80;99.90
27544;DHT22;17996;51.056;3.656;2024-02-21T10:19:27;11.70;99.90
27544;DHT22;17996;51.056;3.656;2024-02-21T10:22:07;11.80;99.90
27544;DHT22;17996;51.056;3.656;2024-02-21T10:24:36;11.90;99.90
27544;DHT22;17996;51.056;3.656;2024-02-21T10:27:09;11.90;99.90
27544;DHT22;17996;51.056;3.656;2024-02-21T10:29:36;11.90;99.90
27544;DHT22;17996;51.056;3.656;2024-02-21T10:32:10;11.90;99.90
27544;DHT22;17996;51.056;3.656;2024-02-21T10:34:38;12.00;99.90
27544;DHT22;17996;51.056;3.656;2024-02-21T10:37:08;12.00;99.90
27544;DHT22;17996;51.056;3.656;2024-02-21T10:39:38;11.90;99.90
27544;DHT22;17996;51.056;3.656;2024-02-21T10:42:05;11.90;99.90
27544;DHT22;17996;51.056;3.656;2024-02-21T10:44:37;12.00;99.90
27544;DHT22;17996;51.056;3.656;2024-02-21T10:47:11;12.00;99.90
27544;DHT22;17996;51.056;3.656;2024-02-21T10:49:40;12.00;99.90
27544;DHT22;17996;51.056;3.656;2024-02-21T10:55:03;11.90;99.90
27544;DHT22;17996;51.056;3.656;2024-02-21T10:57:31;11.90;99.90
27544;DHT22;17996;51.056;3.656;2024-02-21T10:59:59;11.90;99.90
27544;DHT22;17996;51.056;3.656;2024-02-21T11:02:26;11.90;99.90
27544;DHT22;17996;51.056;3.656;2024-02-21T11:04:53;11.80;99.90
27544;DHT22;17996;51.056;3.656;2024-02-21T11:07:21;11.80;99.90
27544;DHT22;17996;51.056;3.656;2024-02-21T11:09:53;11.80;99.90
27544;DHT22;17996;51.056;3.656;2024-02-21T11:12:25;11.80;99.90
27544;DHT22;17996;51.056;3.656;2024-02-21T11:15:03;11.80;99.90
27544;DHT22;17996;51.056;3.656;2024-02-21T11:17:30;11.70;99.90
27544;DHT22;17996;51.056;3.656;2024-02-21T11:19:56;11.70;99.90
27544;DHT22;17996;51.056;3.656;2024-02-21T11:22:23;11.60;99.90
27544;DHT22;17996;51.056;3.656;2024-02-21T11:24:50;11.70;99.90
27544;DHT22;17996;51.056;3.656;2024-02-21T11:27:19;11.70;99.90
27544;DHT22;17996;51.056;3.656;2024-02-21T11:29:48;11.70;99.90
27544;DHT22;17996;51.056;3.656;2024-02-21T11:32:17;11.70;99.90
27544;DHT22;17996;51.056;3.656;2024-02-21T11:35:03;11.70;99.90
27544;DHT22;17996;51.056;3.656;2024-02-21T11:37:34;11.80;99.90
27544;DHT22;17996;51.056;3.656;2024-02-21T11:40:04;11.80;99.90
27544;DHT22;17996;51.056;3.656;2024-02-21T11:42:32;11.80;99.90
27544;DHT22;17996;51.056;3.656;2024-02-21T11:45:00;11.80;99.90
27544;DHT22;17996;51.056;3.656;2024-02-21T11:47:29;11.80;99.90
27544;DHT22;17996;51.056;3.656;2024-02-21T11:49:55;11.90;99.90
27544;DHT22;17996;51.056;3.656;2024-02-21T11:52:26;11.80;99.90
27544;DHT22;17996;51.056;3.656;2024-02-21T11:54:55;11.80;99.90
27544;DHT22;17996;51.056;3.656;2024-02-21T11:57:26;11.80;99.90
27544;DHT22;17996;51.056;3.656;2024-02-21T11:59:52;11.80;99.90
27544;DHT22;17996;51.056;3.656;2024-02-21T12:02:21;11.80;99.90
27544;DHT22;17996;51.056;3.656;2024-02-21T12:04:47;11.80;99.90
27544;DHT22;17996;51.056;3.656;2024-02-21T12:07:15;11.80;99.90
27544;DHT22;17996;51.056;3.656;2024-02-21T12:09:41;11.70;99.90
27544;DHT22;17996;51.056;3.656;2024-02-21T12:12:07;11.70;99.90
27544;DHT22;17996;51.056;3.656;2024-02-21T12:14:35;11.70;99.90
27544;DHT22;17996;51.056;3.656;2024-02-21T12:17:02;11.80;99.90
27544;DHT22;17996;51.056;3.656;2024-02-21T12:19:32;11.80;99.90
27544;DHT22;17996;51.056;3.656;2024-02-21T12:21:59;11.80;99.90
27544;DHT22;17996;51.056;3.656;2024-02-21T12:24:28;11.90;99.90
27544;DHT22;17996;51.056;3.656;2024-02-21T12:26:56;11.90;99.90
27544;DHT22;17996;51.056;3.656;2024-02-21T12:29:24;12.00;99.90
27544;DHT22;17996;51.056;3.656;2024-02-21T12:31:50;12.00;99.90
27544;DHT22;17996;51.056;3.656;2024-02-21T12:34:16;12.00;99.90
27544;DHT22;17996;51.056;3.656;2024-02-21T12:36:44;11.90;99.90
27544;DHT22;17996;51.056;3.656;2024-02-21T12:39:11;11.90;99.90
27544;DHT22;17996;51.056;3.656;2024-02-21T12:41:37;12.00;99.90
27544;DHT22;17996;51.056;3.656;2024-02-21T12:44:09;12.00;99.90
27544;DHT22;17996;51.056;3.656;2024-02-21T12:46:37;12.00;99.90
27544;DHT22;17996;51.056;3.656;2024-02-21T12:49:03;12.00;99.90
27544;DHT22;17996;51.056;3.656;2024-02-21T12:51:31;12.00;99.90
27544;DHT22;17996;51.056;3.656;2024-02-21T12:53:58;12.10;99.90
27544;DHT22;17996;51.056;3.656;2024-02-21T12:56:26;12.10;99.90
27544;DHT22;17996;51.056;3.656;2024-02-21T12:58:53;12.10;99.90
27544;DHT22;17996;51.056;3.656;2024-02-21T13:01:19;12.10;99.90
27544;DHT22;17996;51.056;3.656;2024-02-21T13:03:45;12.10;99.90
27544;DHT22;17996;51.056;3.656;2024-02-21T13:06:12;12.10;99.90
27544;DHT22;17996;51.056;3.656;2024-02-21T13:08:39;12.00;99.90
27544;DHT22;17996;51.056;3.656;2024-02-21T13:11:06;11.90;99.90
27544;DHT22;17996;51.056;3.656;2024-02-21T13:13:32;11.90;99.90
27544;DHT22;17996;51.056;3.656;2024-02-21T13:15:58;11.90;99.90
27544;DHT22;17996;51.056;3.656;2024-02-21T13:18:24;12.00;99.90
27544;DHT22;17996;51.056;3.656;2024-02-21T13:20:50;11.90;99.90
27544;DHT22;17996;51.056;3.656;2024-02-21T13:23:17;11.90;99.90
27544;DHT22;17996;51.056;3.656;2024-02-21T13:25:44;11.90;99.90
27544;DHT22;17996;51.056;3.656;2024-02-21T13:28:11;11.80;99.90
27544;DHT22;17996;51.056;3.656;2024-02-21T13:30:38;11.80;99.90
27544;DHT22;17996;51.056;3.656;2024-02-21T13:33:05;11.80;99.90
27544;DHT22;17996;51.056;3.656;2024-02-21T13:35:33;11.80;99.90
27544;DHT22;17996;51.056;3.656;2024-02-21T13:38:01;11.80;99.90
27544;DHT22;17996;51.056;3.656;2024-02-21T13:40:28;11.80;99.90
27544;DHT22;17996;51.056;3.656;2024-02-21T13:42:56;11.80;99.90
27544;DHT22;17996;51.056;3.656;2024-02-21T13:45:22;11.80;99.90
27544;DHT22;17996;51.056;3.656;2024-02-21T13:47:48;11.80;99.90
27544;DHT22;17996;51.056;3.656;2024-02-21T13:50:14;11.80;99.90
27544;DHT22;17996;51.056;3.656;2024-02-21T13:52:44;11.80;99.90
27544;DHT22;17996;51.056;3.656;2024-02-21T13:55:12;11.70;99.90
27544;DHT22;17996;51.056;3.656;2024-02-21T13:57:38;11.70;99.90
27544;DHT22;17996;51.056;3.656;2024-02-21T14:00:08;11.60;99.90
27544;DHT22;17996;51.056;3.656;2024-02-21T14:02:37;11.60;99.90
27544;DHT22;17996;51.056;3.656;2024-02-21T14:05:03;11.60;99.90
27544;DHT22;17996;51.056;3.656;2024-02-21T14:07:31;11.60;99.90
27544;DHT22;17996;51.056;3.656;2024-02-21T14:09:59;11.50;99.90
27544;DHT22;17996;51.056;3.656;2024-02-21T14:12:26;11.50;99.90
27544;DHT22;17996;51.056;3.656;2024-02-21T14:14:52;11.40;99.90
27544;DHT22;17996;51.056;3.656;2024-02-21T14:17:18;11.40;99.90
27544;DHT22;17996;51.056;3.656;2024-02-21T14:19:46;11.40;99.90
27544;DHT22;17996;51.056;3.656;2024-02-21T14:22:13;11.30;99.90
27544;DHT22;17996;51.056;3.656;2024-02-21T14:24:39;11.30;99.90
27544;DHT22;17996;51.056;3.656;2024-02-21T14:27:07;11.30;99.90
27544;DHT22;17996;51.056;3.656;2024-02-21T14:29:34;11.20;99.90
27544;DHT22;17996;51.056;3.656;2024-02-21T14:32:01;11.30;99.90
27544;DHT22;17996;51.056;3.656;2024-02-21T14:34:27;11.30;99.90
27544;DHT22;17996;51.056;3.656;2024-02-21T14:36:53;11.30;99.90
27544;DHT22;17996;51.056;3.656;2024-02-21T14:39:19;11.20;99.90
27544;DHT22;17996;51.056;3.656;2024-02-21T14:41:46;11.20;99.90
27544;DHT22;17996;51.056;3.656;2024-02-21T14:44:12;11.20;99.90
27544;DHT22;17996;51.056;3.656;2024-02-21T14:46:39;11.20;99.90
27544;DHT22;17996;51.056;3.656;2024-02-21T14:49:05;11.20;99.90
27544;DHT22;17996;51.056;3.656;2024-02-21T14:51:32;11.20;99.90
27544;DHT22;17996;51.056;3.656;2024-02-21T14:53:58;11.20;99.90
27544;DHT22;17996;51.056;3.656;2024-02-21T14:56:25;11.20;99.90
27544;DHT22;17996;51.056;3.656;2024-02-21T14:58:51;11.20;99.90
27544;DHT22;17996;51.056;3.656;2024-02-21T15:01:18;11.10;99.90
27544;DHT22;17996;51.056;3.656;2024-02-21T15:03:44;11.10;99.90
27544;DHT22;17996;51.056;3.656;2024-02-21T15:06:10;11.10;99.90
27544;DHT22;17996;51.056;3.656;2024-02-21T15:08:37;11.10;99.90
27544;DHT22;17996;51.056;3.656;2024-02-21T15:11:03;11.10;99.90
27544;DHT22;17996;51.056;3.656;2024-02-21T15:13:29;11.10;99.90
27544;DHT22;17996;51.056;3.656;2024-02-21T15:15:56;11.10;99.90
27544;DHT22;17996;51.056;3.656;2024-02-21T15:18:22;11.10;99.90
27544;DHT22;17996;51.056;3.656;2024-02-21T15:20:48;11.10;99.90
27544;DHT22;17996;51.056;3.656;2024-02-21T15:23:15;11.10;99.90
27544;DHT22;17996;51.056;3.656;2024-02-21T15:25:42;11.00;99.90
27544;DHT22;17996;51.056;3.656;2024-02-21T15:28:12;11.00;99.90
27544;DHT22;17996;51.056;3.656;2024-02-21T15:30:38;11.00;99.90
27544;DHT22;17996;51.056;3.656;2024-02-21T15:33:04;11.00;99.90
27544;DHT22;17996;51.056;3.656;2024-02-21T15:35:30;10.90;99.90